x

Dunkirk, Ny (dbln6) Weather Station

6:00pm - Mon 30th Mar 2015 All times are CDT. -5 hours from GMT.

  • Wind
    13mph, 15mph gusts
  • Air Temp 37°f
  • Sea Pressure 1012.2mb
  • Dunkirk, Ny
  • Dunkirk, Ny

More Historic Weather Station data

Upgrade to MSW Pro to gain access to the past 30 days of data for over 8000 Wavebouys and Weather Stations around the globe.

Join Pro

Comparision Forecast

View Surf forecast
   
Mon 03/30 6:00pm 13 15 mph 1012.2mb 37f
5:00pm 16 18 mph 1011.6mb 35f
4:00pm 28 32 mph 1010.1mb 36f
3:00pm 25 30 mph 1010.2mb 35f
2:00pm 26 33 mph 1009.5mb 36f
1:00pm 31 34 mph 1009.4mb 36f
12:00pm 26 30 mph 1010.3mb 35f
11:00am 29 31 mph 1009.9mb 36f
10:00am 26 30 mph 1009.8mb 35f
9:00am 25 29 mph 1009.1mb 35f
8:00am 30 33 mph 1007.8mb 35f
7:00am 30 38 mph 1007.1mb 36f
6:00am 29 32 mph 1006.4mb 35f
5:00am 30 34 mph 1004.9mb 36f
4:00am 38 47 mph 1003mb 38f
3:00am 23 31 mph 1004.5mb 40f
2:00am 14 22 mph 1005.7mb 39f
1:00am 16 23 mph 1006.9mb 41f
12:00am 14 20 mph 1008.1mb 40f
Sun 03/29 11:00pm 10 15 mph 1010.1mb 39f
10:00pm 11 17 mph 1012.1mb 37f
9:00pm 17 24 mph 1012.9mb 39f
8:00pm 11 22 mph 1013.1mb 42f
7:00pm 17 24 mph 1012.3mb 42f
6:00pm 14 22 mph 1014mb 43f
5:00pm 11 20 mph 1015.8mb 44f
4:00pm 9 17 mph 1017.2mb 37f
3:00pm 6
mph
1019.4mb 34f
2:00pm 9 10 mph 1022.2mb 33f
1:00pm 10 13 mph 1023.5mb 31f
12:00pm 10 11 mph 1024.7mb 31f
11:00am 11 13 mph 1025.9mb 31f
10:00am 10
mph
1026.9mb 29f
9:00am 9 10 mph 1026.9mb 29f
8:00am 6 9 mph 1027.2mb 27f
7:00am 7 10 mph 1027.3mb 21f
6:00am 7 9 mph 1027.3mb 18f
5:00am 7 9 mph 1026.8mb 19f
4:00am 6 9 mph 1026.7mb 19f
3:00am 8 10 mph 1026.5mb 19f
2:00am 8 10 mph 1026.8mb 20f
1:00am 8 10 mph 1026.7mb 20f
12:00am 9 10 mph 1026.5mb 18f
Sat 03/28 11:00pm 9 11 mph 1026.1mb 19f
10:00pm 10 11 mph 1025.7mb 19f
9:00pm 16 17 mph 1025mb 21f
8:00pm 14 16 mph 1024.5mb 21f
7:00pm 16 17 mph 1023.7mb 22f
6:00pm 21 23 mph 1022.9mb 23f
5:00pm 16 20 mph 1023.1mb 22f
4:00pm 14 15 mph 1023mb 24f
3:00pm 10 11 mph 1023.1mb 23f
2:00pm 7 8 mph 1023.4mb 21f
1:00pm 8 10 mph 1023.5mb 19f
12:00pm 10 11 mph 1023.6mb 18f
11:00am 13 15 mph 1023.6mb 18f
10:00am 13 15 mph 1023.1mb 16f
9:00am 14 15 mph 1022.5mb 14f
8:00am 11 13 mph 1021.8mb 13f
7:00am 13 14 mph 1020.7mb 14f
6:00am 10 11 mph 1019.7mb 12f
5:00am 9 10 mph 1019mb 16f
4:00am 8 9 mph 1018.5mb 17f
3:00am 9 10 mph 1018.4mb 16f
2:00am 6 7 mph 1018.6mb 17f
1:00am 8 10 mph 1018.7mb 17f
12:00am 13 14 mph 1018.3mb 17f
Fri 03/27 11:00pm 13 15 mph 1018.3mb 18f
10:00pm 13 14 mph 1018.1mb 19f
9:00pm 9
mph
1017.6mb 20f
8:00pm 13 14 mph 1016.7mb 22f
7:00pm 10 11 mph 1015.8mb 23f
6:00pm 9 10 mph 1015.4mb 24f
5:00pm 15 17 mph 1014.3mb 24f
4:00pm 15 16 mph 1013.4mb 25f
3:00pm 18 20 mph 1012.9mb 27f
2:00pm 22 23 mph 1012.7mb 27f
1:00pm 21 24 mph 1012.7mb 28f
12:00pm 15 16 mph 1013.1mb 28f
11:00am 14 16 mph 1012.6mb 29f
10:00am 9 13 mph 1013mb 29f
9:00am 16 17 mph 1012.6mb 29f
8:00am 13 15 mph 1012.2mb 29f
7:00am 15 17 mph 1011.7mb 30f
6:00am 11 14 mph 1011.7mb 31f
5:00am 13 14 mph 1011.4mb 32f
4:00am 10 11 mph 1011mb 32f
3:00am 14 16 mph 1011.2mb 32f
2:00am 14 16 mph 1010.7mb 32f
1:00am 13 15 mph 1010.9mb 32f